Accueil
METAR-TAF:

METAR-TAF

Aéroports :

Valence, France

Aéroport de Valence-Chabeuil

latitude: 44-54-58N, longitude: 4-58-06E, altitude: 160 m

Observation

Le bulletin a été fait il y a 31 minutes, à 08:30 UTC
Vent 16 kt de nord
Température 6°C
Humidité 75%
Pression 1014 hPa
Visibilité 10 km ou plus
Quelques nuages à une hauteur de 2300 ft
Ciel couvert à une hauteur de 3300 ft

METAR: LFLU 270830Z AUTO 36016KT 9999 FEW023 OVC033 06/02 Q1014

Heure: 11:01 (09:01 UTC)


TAF: absent

Observations et prévisions météorologiques de plus de 4000 aéroports (messages METAR et TAF).

Les stations disponibles sont représentées par des disques jaunes et rouges sur la carte.

Passer la souris dessus pour voir le nom de la station.

Cliquer dessus pour voir les observations et prévisions météorologiques.

Pour changer de carte: cliquez sur les boutons verts avec une croix noire pour zoomer, sur le bouton vert avec un tiret pour effectuer un zoom arrière, ou sur les flèches vertes pour les cartes adjacentes.


METAR-TAF: